Time,TemperatureF,DewpointF,PressureIn,WindDirection,WindDirectionDegrees,WindSpeedMPH,WindSpeedGustMPH,Humidity,HourlyPrecipIn,Conditions,Clouds,dailyrainin,SolarRadiationWatts/m^2,SoftwareType,DateUTC
2013-02-23 00:01:00,67.0,59.0,-100.00,NE,40,13.0,42.0,76,0.00,,,0.22,0.000000,,2013-02-23 10:01:00,
2013-02-23 00:11:00,67.0,59.0,-100.00,NE,40,13.0,42.0,76,0.00,,,0.22,0.000000,,2013-02-23 10:11:00,
2013-02-23 00:21:00,67.0,59.0,-100.00,NE,40,13.0,42.0,76,0.00,,,0.22,0.000000,,2013-02-23 10:21:00,
2013-02-23 00:31:00,67.0,59.0,-100.00,NE,40,13.0,42.0,76,0.00,,,0.22,0.000000,,2013-02-23 10:31:00,
2013-02-23 01:02:00,69.0,59.0,-100.00,North,359,12.0,36.0,71,0.00,,,0.22,0.000000,,2013-02-23 11:02:00,
2013-02-23 01:11:00,69.0,59.0,-100.00,North,359,12.0,36.0,71,0.00,,,0.22,0.000000,,2013-02-23 11:11:00,
2013-02-23 01:21:00,69.0,59.0,-100.00,North,359,12.0,36.0,71,0.00,,,0.22,0.000000,,2013-02-23 11:21:00,
2013-02-23 01:32:00,69.0,59.0,-100.00,North,359,12.0,36.0,71,0.00,,,0.22,0.000000,,2013-02-23 11:32:00,
2013-02-23 02:01:00,67.0,59.0,-100.00,ENE,58,12.0,32.0,75,0.00,,,0.22,0.000000,,2013-02-23 12:01:00,
2013-02-23 02:11:00,67.0,59.0,-100.00,ENE,58,12.0,32.0,75,0.00,,,0.22,0.000000,,2013-02-23 12:11:00,
2013-02-23 02:21:00,67.0,59.0,-100.00,ENE,58,12.0,32.0,75,0.00,,,0.22,0.000000,,2013-02-23 12:21:00,
2013-02-23 02:32:00,67.0,59.0,-100.00,ENE,58,12.0,32.0,75,0.00,,,0.22,0.000000,,2013-02-23 12:32:00,
2013-02-23 03:01:00,69.0,60.0,-100.00,ESE,123,10.0,29.0,73,0.00,,,0.22,0.000000,,2013-02-23 13:01:00,
2013-02-23 03:11:00,69.0,60.0,-100.00,ESE,123,10.0,29.0,73,0.00,,,0.22,0.000000,,2013-02-23 13:11:00,
2013-02-23 03:22:00,69.0,60.0,-100.00,ESE,123,10.0,29.0,73,0.00,,,0.22,0.000000,,2013-02-23 13:22:00,
2013-02-23 03:31:00,69.0,60.0,-100.00,ESE,123,10.0,29.0,73,0.00,,,0.22,0.000000,,2013-02-23 13:31:00,
2013-02-23 04:02:00,69.0,60.0,-100.00,NE,37,9.0,24.0,72,0.00,,,0.21,0.000000,,2013-02-23 14:02:00,
2013-02-23 04:11:00,69.0,60.0,-100.00,NE,37,9.0,24.0,72,0.00,,,0.21,0.000000,,2013-02-23 14:11:00,
2013-02-23 04:21:00,69.0,60.0,-100.00,NE,37,9.0,24.0,72,0.00,,,0.21,0.000000,,2013-02-23 14:21:00,
2013-02-23 04:32:00,69.0,60.0,-100.00,NE,37,9.0,24.0,72,0.00,,,0.21,0.000000,,2013-02-23 14:32:00,
2013-02-23 05:01:00,69.0,60.0,-100.00,NE,43,9.0,31.0,73,0.00,,,0.17,0.000000,,2013-02-23 15:01:00,
2013-02-23 05:11:00,69.0,60.0,-100.00,NE,43,9.0,31.0,73,0.00,,,0.17,0.000000,,2013-02-23 15:11:00,
2013-02-23 05:21:00,69.0,60.0,-100.00,NE,43,9.0,31.0,73,0.00,,,0.17,0.000000,,2013-02-23 15:21:00,
2013-02-23 05:31:00,69.0,60.0,-100.00,NE,43,9.0,31.0,73,0.00,,,0.17,0.000000,,2013-02-23 15:31:00,
2013-02-23 06:01:00,69.0,59.0,-100.00,East,91,9.0,29.0,71,0.00,,,0.12,0.000000,,2013-02-23 16:01:00,
2013-02-23 06:11:00,69.0,59.0,-100.00,East,91,9.0,29.0,71,0.00,,,0.12,0.000000,,2013-02-23 16:11:00,
2013-02-23 06:21:00,69.0,59.0,-100.00,East,91,9.0,29.0,71,0.00,,,0.12,0.000000,,2013-02-23 16:21:00,
2013-02-23 06:31:00,69.0,59.0,-100.00,East,91,9.0,29.0,71,0.00,,,0.12,0.000000,,2013-02-23 16:31:00,
2013-02-23 07:01:00,67.0,58.0,-100.00,SW,230,6.0,26.0,73,0.01,,,0.07,0.000000,,2013-02-23 17:01:00,
2013-02-23 07:11:00,67.0,58.0,-100.00,SW,230,6.0,26.0,73,0.01,,,0.07,0.000000,,2013-02-23 17:11:00,
2013-02-23 07:21:00,67.0,58.0,-100.00,SW,230,6.0,26.0,73,0.01,,,0.07,0.000000,,2013-02-23 17:21:00,
2013-02-23 07:31:00,67.0,58.0,-100.00,SW,230,6.0,26.0,73,0.01,,,0.07,0.000000,,2013-02-23 17:31:00,
2013-02-23 08:01:00,69.0,59.0,-100.00,NE,54,13.0,39.0,71,0.00,,,0.06,0.000000,,2013-02-23 18:01:00,
2013-02-23 08:12:00,69.0,59.0,-100.00,NE,54,13.0,39.0,71,0.00,,,0.06,0.000000,,2013-02-23 18:12:00,
2013-02-23 08:21:00,69.0,59.0,-100.00,NE,54,13.0,39.0,71,0.00,,,0.06,0.000000,,2013-02-23 18:21:00,
2013-02-23 08:31:00,69.0,59.0,-100.00,NE,54,13.0,39.0,71,0.00,,,0.06,0.000000,,2013-02-23 18:31:00,
2013-02-23 09:01:00,70.0,58.0,-100.00,NE,44,13.0,30.0,66,0.00,,,0.06,12.000000,,2013-02-23 19:01:00,
2013-02-23 09:11:00,70.0,58.0,-100.00,NE,44,13.0,30.0,66,0.00,,,0.06,12.000000,,2013-02-23 19:11:00,
2013-02-23 09:21:00,70.0,58.0,-100.00,NE,44,13.0,30.0,66,0.00,,,0.06,12.000000,,2013-02-23 19:21:00,
2013-02-23 09:32:00,70.0,58.0,-100.00,NE,44,13.0,30.0,66,0.00,,,0.06,12.000000,,2013-02-23 19:32:00,
2013-02-23 10:01:00,73.0,61.0,-100.00,NE,40,8.0,32.0,67,0.00,,,0.05,204.000000,,2013-02-23 20:01:00,
2013-02-23 10:11:00,73.0,61.0,-100.00,NE,40,8.0,32.0,67,0.00,,,0.05,204.000000,,2013-02-23 20:11:00,
2013-02-23 10:21:00,73.0,61.0,-100.00,NE,40,8.0,32.0,67,0.00,,,0.05,204.000000,,2013-02-23 20:21:00,
2013-02-23 10:31:00,73.0,61.0,-100.00,NE,40,8.0,32.0,67,0.00,,,0.05,204.000000,,2013-02-23 20:31:00,
2013-02-23 11:01:00,73.0,61.0,-100.00,NE,40,14.0,33.0,65,0.00,,,0.04,601.000000,,2013-02-23 21:01:00,
2013-02-23 11:11:00,73.0,61.0,-100.00,NE,40,14.0,33.0,65,0.00,,,0.04,601.000000,,2013-02-23 21:11:00,
2013-02-23 11:22:00,73.0,61.0,-100.00,NE,40,14.0,33.0,65,0.00,,,0.04,601.000000,,2013-02-23 21:22:00,
2013-02-23 11:31:00,73.0,61.0,-100.00,NE,40,14.0,33.0,65,0.00,,,0.04,601.000000,,2013-02-23 21:31:00,
2013-02-23 12:01:00,76.0,62.0,-100.00,ENE,63,6.0,29.0,61,0.00,,,0.03,836.000000,,2013-02-23 22:01:00,
2013-02-23 12:11:00,76.0,62.0,-100.00,ENE,63,6.0,29.0,61,0.00,,,0.03,836.000000,,2013-02-23 22:11:00,
2013-02-23 12:21:00,76.0,62.0,-100.00,ENE,63,6.0,29.0,61,0.00,,,0.03,836.000000,,2013-02-23 22:21:00,
2013-02-23 12:31:00,76.0,62.0,-100.00,ENE,63,6.0,29.0,61,0.00,,,0.03,836.000000,,2013-02-23 22:31:00,
2013-02-23 12:52:00,75.0,60.0,-100.00,NNE,13,6.0,25.0,59,0.00,,,0.02,1069.000000,,2013-02-23 22:52:00,
2013-02-23 13:01:00,75.0,60.0,-100.00,NNE,13,6.0,25.0,59,0.00,,,0.02,1069.000000,,2013-02-23 23:01:00,
2013-02-23 13:11:00,75.0,60.0,-100.00,NNE,13,6.0,25.0,59,0.00,,,0.02,1069.000000,,2013-02-23 23:11:00,
2013-02-23 13:21:00,75.0,60.0,-100.00,NNE,13,6.0,25.0,59,0.00,,,0.02,1069.000000,,2013-02-23 23:21:00,
2013-02-23 13:31:00,75.0,60.0,-100.00,NNE,13,6.0,25.0,59,0.00,,,0.02,1069.000000,,2013-02-23 23:31:00,
2013-02-23 14:01:00,76.0,60.0,-100.00,NNE,15,9.0,28.0,57,0.00,,,0.02,1191.000000,,2013-02-24 00:01:00,
2013-02-23 14:11:00,76.0,60.0,-100.00,NNE,15,9.0,28.0,57,0.00,,,0.02,1191.000000,,2013-02-24 00:11:00,
2013-02-23 14:22:00,76.0,60.0,-100.00,NNE,15,9.0,28.0,57,0.00,,,0.02,1191.000000,,2013-02-24 00:22:00,
2013-02-23 14:31:00,76.0,60.0,-100.00,NNE,15,9.0,28.0,57,0.00,,,0.02,1191.000000,,2013-02-24 00:31:00,
2013-02-23 15:01:00,71.0,61.0,-100.00,NNE,14,7.0,30.0,70,0.00,,,0.01,1274.000000,,2013-02-24 01:01:00,
2013-02-23 15:11:00,71.0,61.0,-100.00,NNE,14,7.0,30.0,70,0.00,,,0.01,1274.000000,,2013-02-24 01:11:00,
2013-02-23 15:22:00,71.0,61.0,-100.00,NNE,14,7.0,30.0,70,0.00,,,0.01,1274.000000,,2013-02-24 01:22:00,
2013-02-23 15:31:00,71.0,61.0,-100.00,NNE,14,7.0,30.0,70,0.00,,,0.01,1274.000000,,2013-02-24 01:31:00,
2013-02-23 16:01:00,72.0,59.0,-100.00,NE,55,12.0,26.0,64,0.00,,,0.01,707.000000,,2013-02-24 02:01:00,
2013-02-23 16:11:00,72.0,59.0,-100.00,NE,55,12.0,26.0,64,0.00,,,0.01,707.000000,,2013-02-24 02:11:00,
2013-02-23 16:21:00,72.0,59.0,-100.00,NE,55,12.0,26.0,64,0.00,,,0.01,707.000000,,2013-02-24 02:21:00,
2013-02-23 16:31:00,72.0,59.0,-100.00,NE,55,12.0,26.0,64,0.00,,,0.01,707.000000,,2013-02-24 02:31:00,
2013-02-23 17:01:00,70.0,58.0,-100.00,ENE,59,11.0,29.0,65,0.00,,,0.01,635.000000,,2013-02-24 03:01:00,
2013-02-23 17:11:00,70.0,58.0,-100.00,ENE,59,11.0,29.0,65,0.00,,,0.01,635.000000,,2013-02-24 03:11:00,
2013-02-23 17:21:00,70.0,58.0,-100.00,ENE,59,11.0,29.0,65,0.00,,,0.01,635.000000,,2013-02-24 03:21:00,
2013-02-23 17:31:00,70.0,58.0,-100.00,ENE,59,11.0,29.0,65,0.00,,,0.01,635.000000,,2013-02-24 03:31:00,
2013-02-23 18:01:00,71.0,58.0,-100.00,NNE,12,6.0,35.0,63,0.00,,,0.01,707.000000,,2013-02-24 04:01:00,
2013-02-23 18:11:00,71.0,58.0,-100.00,NNE,12,6.0,35.0,63,0.00,,,0.01,707.000000,,2013-02-24 04:11:00,
2013-02-23 18:21:00,71.0,58.0,-100.00,NNE,12,6.0,35.0,63,0.00,,,0.01,707.000000,,2013-02-24 04:21:00,
2013-02-23 18:31:00,71.0,58.0,-100.00,NNE,12,6.0,35.0,63,0.00,,,0.01,707.000000,,2013-02-24 04:31:00,
2013-02-23 19:01:00,68.0,58.0,-100.00,NE,43,13.0,31.0,71,0.00,,,0.01,300.000000,,2013-02-24 05:01:00,
2013-02-23 19:11:00,68.0,58.0,-100.00,NE,43,13.0,31.0,71,0.00,,,0.01,300.000000,,2013-02-24 05:11:00,
2013-02-23 19:21:00,68.0,58.0,-100.00,NE,43,13.0,31.0,71,0.00,,,0.01,300.000000,,2013-02-24 05:21:00,
2013-02-23 19:32:00,68.0,58.0,-100.00,NE,43,13.0,31.0,71,0.00,,,0.01,300.000000,,2013-02-24 05:32:00,
2013-02-23 20:01:00,68.0,61.0,-100.00,NE,53,12.0,39.0,77,0.00,,,0.01,55.000000,,2013-02-24 06:01:00,
2013-02-23 20:11:00,68.0,61.0,-100.00,NE,53,12.0,39.0,77,0.00,,,0.01,55.000000,,2013-02-24 06:11:00,
2013-02-23 20:21:00,68.0,61.0,-100.00,NE,53,12.0,39.0,77,0.00,,,0.01,55.000000,,2013-02-24 06:21:00,
2013-02-23 20:31:00,68.0,61.0,-100.00,NE,53,12.0,39.0,77,0.00,,,0.01,55.000000,,2013-02-24 06:31:00,
2013-02-23 21:01:00,66.0,60.0,-100.00,NNE,23,9.0,34.0,80,0.00,,,0.01,1.000000,,2013-02-24 07:01:00,
2013-02-23 21:11:00,66.0,60.0,-100.00,NNE,23,9.0,34.0,80,0.00,,,0.01,1.000000,,2013-02-24 07:11:00,
2013-02-23 21:21:00,66.0,60.0,-100.00,NNE,23,9.0,34.0,80,0.00,,,0.01,1.000000,,2013-02-24 07:21:00,
2013-02-23 21:31:00,66.0,60.0,-100.00,NNE,23,9.0,34.0,80,0.00,,,0.01,1.000000,,2013-02-24 07:31:00,
2013-02-23 22:01:00,66.0,59.0,-100.00,NE,41,12.0,37.0,78,0.00,,,0.01,0.000000,,2013-02-24 08:01:00,
2013-02-23 22:11:00,66.0,59.0,-100.00,NE,41,12.0,37.0,78,0.00,,,0.01,0.000000,,2013-02-24 08:11:00,
2013-02-23 22:22:00,66.0,59.0,-100.00,NE,41,12.0,37.0,78,0.00,,,0.01,0.000000,,2013-02-24 08:22:00,
2013-02-23 22:31:00,66.0,59.0,-100.00,NE,41,12.0,37.0,78,0.00,,,0.01,0.000000,,2013-02-24 08:31:00,
2013-02-23 23:01:00,67.0,59.0,-100.00,North,2,11.0,38.0,75,0.00,,,0.01,0.000000,,2013-02-24 09:01:00,
2013-02-23 23:11:00,67.0,59.0,-100.00,North,2,11.0,38.0,75,0.00,,,0.01,0.000000,,2013-02-24 09:11:00,
2013-02-23 23:21:00,67.0,59.0,-100.00,North,2,11.0,38.0,75,0.00,,,0.01,0.000000,,2013-02-24 09:21:00,
2013-02-23 23:31:00,67.0,59.0,-100.00,North,2,11.0,38.0,75,0.00,,,0.01,0.000000,,2013-02-24 09:31:00,
2013-02-23 23:52:00,67.0,60.0,-100.00,SW,226,9.0,25.0,79,0.00,,,-99.99,0.000000,,2013-02-24 09:52:00,